Beech Bottom, North Carolina
Current Conditions -  °F | °C
As of 7:35 AM on Monday 26 Jan 2015 (Local Time) from KTNB Reporting Station
Light Rain Light Rain  
Wind Chill: 33°   Ceiling: 2200
Heat Index: 33°   Visibility: 10mi
Dew Point: 33°   Wind: 0mph
Humidity: 100%   Direction: NA
Pressure: 29.62"   Gusts: NA
Location:  36.0227°N, 81.9499°W
Report Text: KTNB 261235Z AUTO 00000KT 10SM -RA BKN022 BKN028 BKN037 01/01 A2962 RMK AO2 T00070007
Loading
Personal Weather Stations






























Interactive Weather Map New forecast layout! Learn more

10-Day Weather Forecast

Advertisements
Track Severe Weather on mobile